Time;durP1;ratioP1;P1;durP2;ratioP2;P2;SDS_P1;SDS_P2;PMS_P1;PMS_P2;Temp;Humidity;BMP_temperature;BMP_pressure;BME280_temperature;BME280_humidity;BME280_pressure;Samples;Min_cycle;Max_cycle;Signal;HPM_P1;HPM_P2
2023/05/16 00:01:15;;;;;;;5.30;1.38;;;14.30;99.90;;;;;;5072440;28;20255;-74
2023/05/16 00:03:42;;;;;;;9.05;2.05;;;14.30;99.90;;;;;;5073748;28;20472;-73
2023/05/16 00:06:08;;;;;;;6.93;1.42;;;14.30;99.90;;;;;;5074203;28;20031;-74
2023/05/16 00:08:35;;;;;;;10.05;1.50;;;14.20;99.90;;;;;;5073838;28;20032;-74
2023/05/16 00:11:01;;;;;;;8.32;1.70;;;14.20;99.90;;;;;;5073869;28;20017;-73
2023/05/16 00:13:29;;;;;;;5.10;1.50;;;14.20;99.90;;;;;;5073229;28;20079;-75
2023/05/16 00:15:55;;;;;;;11.05;1.80;;;14.20;99.90;;;;;;5073393;28;20041;-74
2023/05/16 00:18:24;;;;;;;12.52;1.52;;;14.20;99.90;;;;;;5073770;28;20017;-74
2023/05/16 00:20:51;;;;;;;5.63;1.42;;;14.30;99.90;;;;;;5073451;28;20445;-74
2023/05/16 00:23:18;;;;;;;7.65;1.45;;;14.30;99.90;;;;;;5073814;28;20469;-73
2023/05/16 00:25:45;;;;;;;7.22;1.67;;;14.20;99.90;;;;;;5073528;28;20107;-74
2023/05/16 00:28:10;;;;;;;;;;;14.10;99.90;;;;;;5073805;28;20074;-74
2023/05/16 00:30:36;;;;;;;8.52;1.67;;;14.20;99.90;;;;;;5074076;28;19908;-74
2023/05/16 00:33:03;;;;;;;10.95;1.60;;;14.20;99.90;;;;;;5071606;28;20067;-74
2023/05/16 00:35:29;;;;;;;11.45;1.90;;;14.20;99.90;;;;;;5073464;28;20025;-73
2023/05/16 00:37:55;;;;;;;8.20;1.57;;;14.20;99.90;;;;;;5073497;28;20103;-74
2023/05/16 00:40:21;;;;;;;8.37;1.80;;;14.20;99.90;;;;;;5073177;28;20266;-74
2023/05/16 00:42:47;;;;;;;5.53;1.60;;;14.20;99.90;;;;;;5073272;28;20255;-75
2023/05/16 00:45:13;;;;;;;7.80;1.60;;;14.20;99.90;;;;;;5072936;28;20267;-73
2023/05/16 00:47:40;;;;;;;9.13;1.40;;;14.20;99.90;;;;;;5073021;28;20028;-75
2023/05/16 00:50:06;;;;;;;10.75;2.00;;;14.10;99.90;;;;;;5073136;28;20031;-74
2023/05/16 00:52:32;;;;;;;6.97;1.52;;;14.10;99.90;;;;;;5071490;28;20024;-74
2023/05/16 00:54:59;;;;;;;7.80;1.65;;;14.10;99.90;;;;;;5071491;28;20039;-73
2023/05/16 00:57:25;;;;;;;9.82;1.45;;;14.10;99.90;;;;;;5071323;28;20020;-73
2023/05/16 00:59:51;;;;;;;7.60;1.88;;;14.20;99.90;;;;;;5073047;28;20060;-74
2023/05/16 01:02:17;;;;;;;6.50;1.98;;;14.20;99.90;;;;;;5073087;28;20097;-75
2023/05/16 01:04:43;;;;;;;9.30;1.90;;;14.20;99.90;;;;;;5072988;28;20430;-74
2023/05/16 01:07:10;;;;;;;9.45;1.95;;;14.20;99.90;;;;;;5072278;28;20259;-75
2023/05/16 01:09:36;;;;;;;8.55;1.85;;;14.20;99.90;;;;;;5073055;28;20048;-75
2023/05/16 01:12:37;;;;;;;9.73;1.95;;;14.30;99.90;;;;;;5072279;28;20495;-73
2023/05/16 01:15:23;;;;;;;7.75;1.80;;;14.20;99.90;;;;;;5072461;28;20334;-75
2023/05/16 01:18:14;;;;;;;7.43;1.90;;;14.30;99.90;;;;;;5072860;28;20024;-75
2023/05/16 01:20:55;;;;;;;9.27;2.00;;;14.30;99.90;;;;;;5072736;28;20125;-74
2023/05/16 01:23:46;;;;;;;7.22;1.95;;;14.30;99.90;;;;;;5072993;28;20028;-74
2023/05/16 01:26:18;;;;;;;13.15;1.75;;;14.30;99.90;;;;;;5072633;28;20087;-74
2023/05/16 01:28:45;;;;;;;8.27;1.90;;;14.30;99.90;;;;;;5072667;28;20111;-75
2023/05/16 01:31:12;;;;;;;8.80;2.00;;;14.30;99.90;;;;;;5072122;28;20096;-74
2023/05/16 01:33:38;;;;;;;;;;;14.30;99.90;;;;;;5072753;28;20379;-76
2023/05/16 01:36:30;;;;;;;8.02;1.88;;;14.40;99.90;;;;;;5072572;28;20340;-74
2023/05/16 01:39:02;;;;;;;11.77;1.80;;;14.40;99.90;;;;;;5072392;28;20475;-75
2023/05/16 01:41:58;;;;;;;12.32;2.00;;;14.40;99.90;;;;;;5072348;28;20039;-75
2023/05/16 01:44:43;;;;;;;8.88;2.10;;;14.40;99.90;;;;;;5072127;28;20099;-74
2023/05/16 01:47:12;;;;;;;8.95;2.00;;;14.50;99.90;;;;;;5071827;28;20024;-74
2023/05/16 01:49:43;;;;;;;10.15;2.05;;;14.50;99.90;;;;;;5071906;28;20107;-75
2023/05/16 01:52:18;;;;;;;7.45;1.70;;;14.50;99.90;;;;;;5072356;28;20123;-75
2023/05/16 01:54:47;;;;;;;10.05;2.10;;;14.50;99.90;;;;;;5072016;28;20032;-73
2023/05/16 01:57:15;;;;;;;10.80;2.28;;;14.50;99.90;;;;;;5070186;28;20043;-74
2023/05/16 01:59:43;;;;;;;10.48;2.10;;;14.50;99.90;;;;;;5071800;28;20484;-75
2023/05/16 02:02:09;;;;;;;9.50;2.17;;;14.50;99.90;;;;;;5071470;28;20024;-74
2023/05/16 02:04:35;;;;;;;9.38;1.98;;;14.50;99.90;;;;;;5071771;28;20017;-75
2023/05/16 02:07:01;;;;;;;9.77;1.80;;;14.50;99.90;;;;;;5071387;28;20326;-75
2023/05/16 02:09:27;;;;;;;12.50;2.10;;;14.50;99.90;;;;;;5069995;28;20289;-74
2023/05/16 02:11:53;;;;;;;14.52;2.33;;;14.50;99.90;;;;;;5069789;28;20025;-75
2023/05/16 02:14:19;;;;;;;8.55;1.90;;;14.50;99.90;;;;;;5071154;28;20049;-75
2023/05/16 02:16:47;;;;;;;6.65;1.80;;;14.40;99.90;;;;;;5071056;28;20044;-74
2023/05/16 02:19:13;;;;;;;12.52;2.65;;;14.40;99.90;;;;;;5070561;28;20380;-75
2023/05/16 02:21:39;;;;;;;12.10;2.40;;;14.40;99.90;;;;;;5069962;28;20020;-75
2023/05/16 02:24:05;;;;;;;9.43;2.33;;;14.40;99.90;;;;;;5071426;28;20057;-74
2023/05/16 02:26:31;;;;;;;9.65;1.88;;;14.40;99.90;;;;;;5071082;28;20029;-75
2023/05/16 02:28:57;;;;;;;6.77;2.17;;;14.50;99.90;;;;;;5071039;28;20047;-75
2023/05/16 02:31:30;;;;;;;12.43;2.30;;;14.50;99.90;;;;;;5070582;28;20298;-74
2023/05/16 02:33:57;;;;;;;6.75;1.55;;;14.50;99.90;;;;;;5070290;28;20075;-74
2023/05/16 02:36:24;;;;;;;12.38;2.05;;;14.50;99.90;;;;;;5070466;28;20058;-74
2023/05/16 02:38:50;;;;;;;6.80;1.88;;;14.50;99.90;;;;;;5070349;28;20033;-75
2023/05/16 02:41:16;;;;;;;10.27;2.10;;;14.50;99.90;;;;;;5070634;28;20103;-74
2023/05/16 02:43:45;;;;;;;8.33;3.03;;;14.50;99.90;;;;;;5071161;28;20036;-75
2023/05/16 02:46:25;;;;;;;14.02;2.80;;;14.50;99.90;;;;;;5070995;28;20772;-74
2023/05/16 02:48:51;;;;;;;9.75;2.30;;;14.60;99.90;;;;;;5070933;28;20104;-75
2023/05/16 02:51:19;;;;;;;8.38;2.00;;;14.60;99.90;;;;;;5070303;28;20089;-74
2023/05/16 02:53:45;;;;;;;10.32;2.08;;;14.50;99.90;;;;;;5070292;28;20028;-74
2023/05/16 02:56:11;;;;;;;10.85;2.00;;;14.60;99.90;;;;;;5070209;28;20021;-74
2023/05/16 02:58:37;;;;;;;11.20;2.45;;;14.60;99.90;;;;;;5071189;28;20051;-75
2023/05/16 03:01:03;;;;;;;8.23;2.10;;;14.60;99.90;;;;;;5071416;28;20085;-74
2023/05/16 03:03:29;;;;;;;5.65;1.75;;;14.50;99.90;;;;;;5071273;28;20270;-75
2023/05/16 03:05:55;;;;;;;6.22;2.00;;;14.50;99.90;;;;;;5071884;28;20044;-73
2023/05/16 03:08:21;;;;;;;11.10;2.23;;;14.50;99.90;;;;;;5071983;28;20437;-75
2023/05/16 03:10:47;;;;;;;11.93;2.70;;;14.50;99.90;;;;;;5071695;28;20250;-75
2023/05/16 03:13:13;;;;;;;10.85;2.42;;;14.50;99.90;;;;;;5071457;28;20377;-74
2023/05/16 03:15:40;;;;;;;16.53;2.50;;;14.50;99.90;;;;;;5070065;28;20025;-75
2023/05/16 03:18:06;;;;;;;8.18;2.70;;;14.50;99.90;;;;;;5070097;28;20364;-73
2023/05/16 03:20:32;;;;;;;10.50;2.30;;;14.60;99.90;;;;;;5070199;28;20024;-75
2023/05/16 03:22:58;;;;;;;12.90;2.67;;;14.60;99.90;;;;;;5071778;28;20446;-75
2023/05/16 03:25:25;;;;;;;12.90;3.40;;;14.60;99.90;;;;;;5071902;28;20086;-76
2023/05/16 03:27:51;;;;;;;10.25;2.72;;;14.60;99.90;;;;;;5072522;28;20021;-75
2023/05/16 03:30:18;;;;;;;10.13;3.20;;;14.60;99.90;;;;;;5074662;28;20024;-75
2023/05/16 03:32:45;;;;;;;11.27;2.95;;;14.60;99.90;;;;;;5075574;28;20448;-76
2023/05/16 03:35:11;;;;;;;12.88;2.88;;;14.70;99.90;;;;;;5075393;28;20107;-74
2023/05/16 03:37:38;;;;;;;9.13;2.90;;;14.60;99.90;;;;;;5076003;28;20070;-76
2023/05/16 03:40:05;;;;;;;14.05;3.20;;;14.60;99.90;;;;;;5074261;28;20658;-74
2023/05/16 03:42:31;;;;;;;14.38;4.20;;;14.70;99.90;;;;;;5074620;28;20066;-75
2023/05/16 03:44:57;;;;;;;10.15;2.95;;;14.60;99.90;;;;;;5076003;28;20036;-75
2023/05/16 03:47:23;;;;;;;14.18;3.20;;;14.60;99.90;;;;;;5074350;28;20078;-75
2023/05/16 03:49:49;;;;;;;15.00;3.03;;;14.60;99.90;;;;;;5076306;28;20063;-75
2023/05/16 03:52:16;;;;;;;16.67;3.60;;;14.60;99.90;;;;;;5075841;28;20020;-75
2023/05/16 03:54:42;;;;;;;16.52;3.58;;;14.60;99.90;;;;;;5075978;28;20036;-75
2023/05/16 03:57:08;;;;;;;18.40;3.87;;;14.70;99.90;;;;;;5075576;28;20147;-74
2023/05/16 03:59:35;;;;;;;21.70;4.97;;;14.70;99.90;;;;;;5074167;28;20060;-76
2023/05/16 04:02:01;;;;;;;14.55;4.35;;;14.80;99.90;;;;;;5075300;28;20027;-76
2023/05/16 04:04:27;;;;;;;20.50;4.30;;;14.90;99.90;;;;;;5075213;28;20475;-75
2023/05/16 04:06:53;;;;;;;17.95;4.82;;;14.90;99.90;;;;;;5075532;28;20271;-76
2023/05/16 04:09:20;;;;;;;20.17;5.10;;;14.90;99.90;;;;;;5074183;28;20036;-77
2023/05/16 04:11:46;;;;;;;17.73;5.27;;;15.00;99.90;;;;;;5074786;28;20021;-76
2023/05/16 04:14:12;;;;;;;23.30;6.03;;;15.00;99.90;;;;;;5073589;28;20075;-76
2023/05/16 04:16:38;;;;;;;21.57;6.67;;;15.00;99.90;;;;;;5075418;28;20020;-77
2023/05/16 04:19:04;;;;;;;30.47;7.93;;;15.10;99.90;;;;;;5076376;28;20289;-77
2023/05/16 04:21:30;;;;;;;25.00;6.30;;;15.10;99.90;;;;;;5072307;28;20020;-76
2023/05/16 04:23:56;;;;;;;22.58;7.20;;;15.10;99.90;;;;;;5073098;28;20021;-76
2023/05/16 04:26:24;;;;;;;25.10;7.47;;;15.10;99.90;;;;;;5075232;28;20380;-75
2023/05/16 04:28:50;;;;;;;26.15;7.05;;;15.20;99.90;;;;;;5075138;28;20431;-74
2023/05/16 04:31:17;;;;;;;26.02;6.93;;;15.20;99.90;;;;;;5075172;28;20029;-75
2023/05/16 04:33:43;;;;;;;27.95;6.68;;;15.20;99.90;;;;;;5075132;28;20098;-77
2023/05/16 04:36:09;;;;;;;32.95;7.57;;;15.10;99.90;;;;;;5075025;28;20016;-73
2023/05/16 04:38:35;;;;;;;29.38;6.97;;;15.20;99.90;;;;;;5072155;28;20067;-76
2023/05/16 04:41:02;;;;;;;30.88;7.18;;;15.20;99.90;;;;;;5072653;28;20028;-76
2023/05/16 04:43:29;;;;;;;29.17;6.65;;;15.30;99.90;;;;;;5073647;28;20503;-78
2023/05/16 04:45:57;;;;;;;30.52;7.10;;;15.30;99.90;;;;;;5073121;28;20040;-75
2023/05/16 04:48:23;;;;;;;20.50;6.45;;;15.30;99.90;;;;;;5075280;28;20073;-76
2023/05/16 04:50:50;;;;;;;29.85;6.43;;;15.40;99.90;;;;;;5075849;28;20021;-76
2023/05/16 04:53:16;;;;;;;29.60;6.15;;;15.40;99.90;;;;;;5075531;28;20024;-77
2023/05/16 04:55:42;;;;;;;26.63;6.45;;;15.40;99.90;;;;;;5075369;28;20031;-77
2023/05/16 04:58:08;;;;;;;26.92;6.07;;;15.40;99.90;;;;;;5075414;28;20108;-75
2023/05/16 05:00:36;;;;;;;22.65;5.65;;;15.50;99.90;;;;;;5074301;28;20021;-76
2023/05/16 05:03:03;;;;;;;24.23;5.32;;;15.50;99.90;;;;;;5073120;28;20471;-76
2023/05/16 05:05:29;;;;;;;24.65;5.40;;;15.50;99.90;;;;;;5074431;28;20028;-77
2023/05/16 05:07:58;;;;;;;26.83;5.75;;;15.50;99.90;;;;;;5074466;28;20051;-75
2023/05/16 05:10:24;;;;;;;26.25;5.15;;;15.50;99.90;;;;;;5106730;28;20021;-77
2023/05/16 05:12:50;;;;;;;26.40;5.60;;;15.40;99.90;;;;;;5073845;28;20074;-77
2023/05/16 05:15:16;;;;;;;20.50;6.25;;;15.40;99.90;;;;;;5074305;28;20033;-76
2023/05/16 05:17:42;;;;;;;25.83;5.32;;;15.50;99.90;;;;;;5074454;28;20016;-77
2023/05/16 05:20:10;;;;;;;26.37;5.17;;;15.50;99.90;;;;;;5074412;28;20507;-77
2023/05/16 05:22:36;;;;;;;23.65;4.80;;;15.60;99.90;;;;;;5072955;28;20700;-76
2023/05/16 05:25:03;;;;;;;20.27;5.75;;;15.60;99.90;;;;;;5074226;28;20475;-76
2023/05/16 05:27:30;;;;;;;17.73;5.15;;;15.60;99.90;;;;;;5074065;28;20035;-76
2023/05/16 05:29:56;;;;;;;26.33;5.95;;;15.70;99.90;;;;;;5072760;28;20032;-78
2023/05/16 05:32:22;;;;;;;25.70;5.93;;;15.80;99.90;;;;;;5073320;28;20025;-74
2023/05/16 05:34:48;;;;;;;34.15;6.13;;;15.80;99.90;;;;;;5073529;28;20048;-75
2023/05/16 05:37:14;;;;;;;31.40;6.35;;;15.80;99.90;;;;;;5073770;28;20024;-76
2023/05/16 05:39:40;;;;;;;26.88;5.63;;;15.80;99.90;;;;;;5071662;28;20020;-75
2023/05/16 05:42:06;;;;;;;39.65;6.20;;;15.90;99.90;;;;;;5073343;28;20142;-76
2023/05/16 05:44:33;;;;;;;28.48;6.45;;;15.90;99.90;;;;;;5073242;28;20056;-76
2023/05/16 05:46:59;;;;;;;;;;;15.80;99.90;;;;;;5073148;28;20128;-76
2023/05/16 05:49:26;;;;;;;23.40;5.10;;;15.80;99.90;;;;;;5088397;28;19904;-76
2023/05/16 05:51:53;;;;;;;24.67;4.75;;;15.90;99.90;;;;;;5072737;28;20191;-75
2023/05/16 05:54:19;;;;;;;32.47;5.75;;;15.90;99.90;;;;;;5071957;28;20042;-76
2023/05/16 05:56:46;;;;;;;34.28;6.22;;;16.00;99.90;;;;;;5072409;28;20044;-77
2023/05/16 05:59:12;;;;;;;;;;;16.10;99.90;;;;;;5073245;28;20035;-75
2023/05/16 06:01:38;;;;;;;26.08;5.30;;;16.20;99.90;;;;;;5072187;28;19905;-75
2023/05/16 06:04:05;;;;;;;23.20;5.20;;;16.10;99.90;;;;;;5071865;28;20021;-75
2023/05/16 06:06:31;;;;;;;27.25;5.43;;;16.20;99.90;;;;;;5070435;28;20025;-77
2023/05/16 06:09:00;;;;;;;24.25;5.68;;;16.10;99.90;;;;;;5072674;28;20025;-76
2023/05/16 06:11:26;;;;;;;23.38;5.43;;;16.10;99.90;;;;;;5072144;28;20056;-78
2023/05/16 06:13:52;;;;;;;24.42;4.80;;;16.20;99.90;;;;;;5071978;28;20056;-76
2023/05/16 06:17:47;;;;;;;24.20;5.45;;;16.20;99.90;;;;;;5071231;28;20085;-73
2023/05/16 06:20:54;;;;;;;26.65;5.20;;;16.30;99.90;;;;;;5049796;28;20134;-74
2023/05/16 06:23:20;;;;;;;26.48;4.78;;;16.30;99.90;;;;;;5088323;28;20130;-76
2023/05/16 06:25:46;;;;;;;24.95;5.15;;;16.70;99.90;;;;;;5052539;28;20052;-73
2023/05/16 06:28:12;;;;;;;21.80;4.53;;;17.00;99.90;;;;;;5067588;28;20029;-72
2023/05/16 06:30:39;;;;;;;24.27;4.97;;;16.90;99.90;;;;;;5071773;28;20086;-73
2023/05/16 06:33:05;;;;;;;28.13;5.13;;;16.70;99.90;;;;;;5071660;28;20052;-72
2023/05/16 06:35:31;;;;;;;24.08;5.43;;;16.70;99.90;;;;;;5071734;28;20384;-76
2023/05/16 06:37:57;;;;;;;20.10;4.75;;;16.60;99.90;;;;;;5071750;28;20478;-71
2023/05/16 06:40:23;;;;;;;21.98;4.38;;;16.60;99.90;;;;;;5071451;28;20025;-70
2023/05/16 08:48:02;;;;;;;26.35;4.90;;;19.70;99.90;;;;;;5100740;27;20791;-68
2023/05/16 08:50:31;;;;;;;22.48;5.10;;;19.10;99.90;;;;;;5095245;28;20060;-69
2023/05/16 08:53:01;;;;;;;24.80;5.30;;;18.70;99.90;;;;;;5096027;28;20132;-70
2023/05/16 08:55:27;;;;;;;27.98;5.38;;;18.70;99.90;;;;;;5087881;28;20024;-71
2023/05/16 08:57:53;;;;;;;26.83;5.95;;;18.60;99.90;;;;;;5087667;28;20028;-70
2023/05/16 09:00:21;;;;;;;18.23;5.43;;;18.70;99.90;;;;;;5087675;28;20062;-69
2023/05/16 09:02:48;;;;;;;19.30;5.18;;;18.50;99.90;;;;;;5087293;28;20017;-69
2023/05/16 09:05:16;;;;;;;24.00;5.38;;;18.40;99.90;;;;;;5087474;28;20035;-71
2023/05/16 09:07:43;;;;;;;37.05;12.70;;;18.40;99.90;;;;;;5087383;28;20084;-71
2023/05/16 09:10:10;;;;;;;27.25;5.25;;;18.50;99.90;;;;;;5085851;28;20025;-71
2023/05/16 09:12:38;;;;;;;22.98;5.45;;;18.60;99.90;;;;;;5086852;28;20024;-71
2023/05/16 09:15:06;;;;;;;26.92;5.43;;;18.80;99.90;;;;;;5086806;28;20056;-69
2023/05/16 09:17:37;;;;;;;28.60;5.80;;;18.80;99.90;;;;;;5094051;28;20024;-72
2023/05/16 09:20:14;;;;;;;23.63;5.30;;;18.70;99.90;;;;;;5107231;28;20353;-70
2023/05/16 09:22:51;;;;;;;18.85;5.90;;;19.00;99.90;;;;;;5107153;28;20129;-71
2023/05/16 09:25:17;;;;;;;;;;;19.40;99.90;;;;;;5107741;28;20310;-71
2023/05/16 09:27:46;;;;;;;27.58;5.07;;;19.30;99.90;;;;;;5107377;28;19930;-71
2023/05/16 09:30:17;;;;;;;22.45;5.25;;;19.30;99.90;;;;;;5107588;28;20422;-70
2023/05/16 09:32:44;;;;;;;24.83;5.40;;;19.10;99.90;;;;;;5105878;28;20039;-68
2023/05/16 09:35:16;;;;;;;24.90;6.38;;;19.00;99.90;;;;;;5088333;28;20360;-69
2023/05/16 09:37:49;;;;;;;23.65;5.13;;;18.90;99.90;;;;;;5075089;28;20036;-69
2023/05/16 09:40:15;;;;;;;24.27;5.55;;;18.80;99.90;;;;;;5066702;28;20027;-72
2023/05/16 09:42:42;;;;;;;27.23;5.55;;;19.00;99.90;;;;;;5066713;28;20029;-71
2023/05/16 09:45:13;;;;;;;20.35;4.93;;;19.30;99.90;;;;;;5066691;28;20040;-71
2023/05/16 09:47:45;;;;;;;20.88;4.93;;;19.60;99.90;;;;;;5082143;28;20051;-71
2023/05/16 09:50:14;;;;;;;25.60;5.18;;;19.60;99.90;;;;;;5106723;28;20170;-70
2023/05/16 09:52:40;;;;;;;21.73;5.47;;;19.80;99.90;;;;;;5107059;28;20055;-69
2023/05/16 09:55:08;;;;;;;23.70;5.30;;;19.80;99.90;;;;;;5106555;28;20421;-70
2023/05/16 09:57:39;;;;;;;29.38;5.30;;;20.00;99.90;;;;;;5102386;28;20115;-70
2023/05/16 10:00:09;;;;;;;27.48;5.57;;;20.50;99.90;;;;;;5092786;28;20103;-72
2023/05/16 10:02:38;;;;;;;25.10;5.00;;;20.80;99.90;;;;;;5092956;28;20024;-72
2023/05/16 10:05:04;;;;;;;22.90;5.15;;;20.90;99.90;;;;;;5093223;28;20024;-72
2023/05/16 10:07:33;;;;;;;;;;;20.80;99.90;;;;;;5093648;28;20123;-70
2023/05/16 10:10:09;;;;;;;21.10;5.47;;;20.30;99.90;;;;;;5093012;28;20406;-71
2023/05/16 10:12:37;;;;;;;26.73;5.85;;;20.40;99.90;;;;;;5092394;28;20023;-70
2023/05/16 10:15:07;;;;;;;28.08;5.55;;;20.60;99.90;;;;;;5092360;28;20020;-70
2023/05/16 10:17:52;;;;;;;30.35;6.07;;;20.70;99.90;;;;;;5092604;28;20039;-69
2023/05/16 10:20:20;;;;;;;21.38;5.28;;;20.60;99.90;;;;;;5093489;28;20320;-68
2023/05/16 10:22:47;;;;;;;26.92;5.97;;;20.80;99.90;;;;;;5093076;28;20050;-70
2023/05/16 10:25:25;;;;;;;26.95;6.35;;;21.00;99.90;;;;;;5092958;28;20081;-69
2023/05/16 10:27:54;;;;;;;34.53;6.63;;;21.50;99.90;;;;;;5064746;28;20035;-68
2023/05/16 10:30:21;;;;;;;26.65;7.00;;;21.50;99.90;;;;;;5062829;28;20135;-71
2023/05/16 10:32:49;;;;;;;20.55;5.35;;;21.10;99.90;;;;;;5055264;28;20041;-70
2023/05/16 10:35:15;;;;;;;26.00;5.43;;;21.10;99.90;;;;;;5052816;28;20468;-69
2023/05/16 10:37:42;;;;;;;26.00;5.45;;;21.50;99.90;;;;;;5053070;28;20117;-70
2023/05/16 10:40:10;;;;;;;21.67;5.47;;;21.50;99.90;;;;;;5052786;28;20083;-69
2023/05/16 10:42:36;;;;;;;26.80;5.22;;;21.60;99.90;;;;;;5052842;28;20349;-71
2023/05/16 10:45:17;;;;;;;23.30;5.05;;;21.80;99.90;;;;;;5051580;28;20438;-71
2023/05/16 10:48:03;;;;;;;22.67;5.35;;;21.70;99.90;;;;;;5069871;28;20062;-71
2023/05/16 10:50:36;;;;;;;32.08;5.80;;;21.00;99.90;;;;;;5091561;28;20024;-71
2023/05/16 10:53:18;;;;;;;27.42;5.80;;;20.80;99.90;;;;;;5092748;28;20028;-71
2023/05/16 10:55:59;;;;;;;27.58;6.13;;;20.50;99.90;;;;;;5091057;28;20537;-68
2023/05/16 10:58:37;;;;;;;26.63;5.80;;;20.10;99.90;;;;;;5092455;28;20139;-70
2023/05/16 11:01:23;;;;;;;24.42;5.97;;;20.10;99.90;;;;;;5092013;28;20418;-69
2023/05/16 11:04:01;;;;;;;;;;;20.00;99.90;;;;;;5091910;28;20444;-69
2023/05/16 11:06:30;;;;;;;25.90;6.13;;;20.30;99.90;;;;;;5092370;28;19912;-71
2023/05/16 11:09:05;;;;;;;28.38;6.07;;;20.40;99.90;;;;;;5091938;28;20131;-70
2023/05/16 11:12:03;;;;;;;32.78;6.32;;;20.30;99.90;;;;;;5091789;28;20035;-71
2023/05/16 11:14:32;;;;;;;34.33;7.82;;;20.10;99.90;;;;;;5092059;28;20024;-71
2023/05/16 11:17:05;;;;;;;37.72;7.28;;;20.10;99.90;;;;;;5082670;28;20037;-69
2023/05/16 11:19:42;;;;;;;24.83;7.00;;;20.30;99.90;;;;;;5092225;28;20440;-72
2023/05/16 11:22:23;;;;;;;;;;;20.40;99.90;;;;;;5092830;28;20024;-71
2023/05/16 11:24:54;;;;;;;42.33;7.60;;;20.40;99.90;;;;;;5092051;28;19911;-71
2023/05/16 11:27:31;;;;;;;26.98;6.60;;;20.20;99.90;;;;;;5092651;28;20032;-70
2023/05/16 11:30:06;;;;;;;27.35;6.57;;;20.20;99.90;;;;;;5092774;28;20165;-70
2023/05/16 11:32:41;;;;;;;39.85;7.63;;;20.30;99.90;;;;;;5092528;28;20032;-70
2023/05/16 11:35:10;;;;;;;31.80;6.30;;;20.50;99.90;;;;;;5092458;28;20061;-71
2023/05/16 11:37:38;;;;;;;27.77;6.32;;;20.20;99.90;;;;;;5092287;28;20020;-70
2023/05/16 11:40:07;;;;;;;36.08;7.70;;;20.10;99.90;;;;;;5092023;28;20104;-69
2023/05/16 11:42:44;;;;;;;25.85;6.57;;;20.30;99.90;;;;;;5092176;28;20124;-70
2023/05/16 11:45:23;;;;;;;34.72;6.95;;;19.90;99.90;;;;;;5092760;28;20028;-71
2023/05/16 11:47:49;;;;;;;32.40;7.93;;;20.00;99.90;;;;;;5091547;28;20522;-69
2023/05/16 11:50:22;;;;;;;34.72;6.32;;;20.10;99.90;;;;;;5092022;28;20456;-70
2023/05/16 11:52:53;;;;;;;34.17;7.45;;;20.40;99.90;;;;;;5092121;28;20499;-70
2023/05/16 11:55:31;;;;;;;26.92;7.38;;;20.70;99.90;;;;;;5092505;28;20024;-69
2023/05/16 11:57:58;;;;;;;30.75;7.30;;;20.80;99.90;;;;;;5054108;28;20029;-69
2023/05/16 12:00:25;;;;;;;;;;;20.50;99.90;;;;;;5052600;28;20137;-69
2023/05/16 12:02:52;;;;;;;28.88;6.70;;;20.50;99.90;;;;;;5051684;28;19949;-69
2023/05/16 12:05:23;;;;;;;33.35;7.00;;;20.30;99.90;;;;;;5052277;28;20017;-69
2023/05/16 12:07:53;;;;;;;34.63;7.55;;;20.20;99.90;;;;;;5052163;28;20041;-68
2023/05/16 12:10:19;;;;;;;37.42;7.60;;;20.30;99.90;;;;;;5052352;28;20029;-70
2023/05/16 12:12:47;;;;;;;33.45;7.72;;;20.40;99.90;;;;;;5052177;28;20025;-69
2023/05/16 12:15:14;;;;;;;29.83;6.97;;;20.80;99.90;;;;;;5053063;28;20021;-68
2023/05/16 12:17:41;;;;;;;26.08;6.72;;;20.90;99.90;;;;;;5068527;28;20020;-69
2023/05/16 12:20:13;;;;;;;;;;;20.70;99.90;;;;;;5093411;28;20039;-69
2023/05/16 12:22:40;;;;;;;28.00;6.53;;;20.80;99.90;;;;;;5092786;28;19911;-70
2023/05/16 12:25:30;;;;;;;28.52;7.55;;;20.90;99.90;;;;;;5092407;28;20016;-70
2023/05/16 12:28:01;;;;;;;45.00;8.43;;;20.60;99.90;;;;;;5092479;28;20032;-70
2023/05/16 12:30:28;;;;;;;37.67;7.30;;;20.90;99.90;;;;;;5092103;28;20035;-70
2023/05/16 12:32:59;;;;;;;30.83;6.68;;;21.10;99.90;;;;;;5092560;28;20483;-71
2023/05/16 12:35:29;;;;;;;34.92;7.50;;;20.80;99.90;;;;;;5092637;28;20028;-72
2023/05/16 12:37:56;;;;;;;37.42;7.90;;;20.60;99.90;;;;;;5092619;28;20091;-71
2023/05/16 12:40:22;;;;;;;41.10;8.73;;;20.60;99.90;;;;;;5092971;28;20441;-71
2023/05/16 12:42:52;;;;;;;37.67;8.45;;;20.60;99.90;;;;;;5092616;28;20024;-70
2023/05/16 12:45:20;;;;;;;38.10;7.78;;;20.50;99.90;;;;;;5092983;28;20064;-70
2023/05/16 12:47:46;;;;;;;36.55;8.52;;;20.80;99.90;;;;;;5090521;28;20502;-70
2023/05/16 12:50:15;;;;;;;35.63;7.05;;;20.80;99.90;;;;;;5092263;28;20051;-69
2023/05/16 12:52:52;;;;;;;37.60;7.70;;;20.90;99.90;;;;;;5092158;28;20055;-71
2023/05/16 12:55:19;;;;;;;31.52;7.53;;;21.00;99.90;;;;;;5092203;28;20464;-70
2023/05/16 12:57:47;;;;;;;40.42;7.90;;;21.00;99.90;;;;;;5091958;28;20082;-69
2023/05/16 13:00:14;;;;;;;37.60;7.80;;;20.90;99.90;;;;;;5091923;28;20080;-68
2023/05/16 13:02:41;;;;;;;28.33;7.65;;;20.70;99.90;;;;;;5090351;28;20051;-71
2023/05/16 13:05:08;;;;;;;32.65;7.03;;;20.60;99.90;;;;;;5091956;28;20024;-70
2023/05/16 13:07:34;;;;;;;35.22;8.10;;;20.50;99.90;;;;;;5091832;28;20043;-69
2023/05/16 13:10:00;;;;;;;29.92;7.28;;;20.40;99.90;;;;;;5092378;28;20020;-70
2023/05/16 13:12:27;;;;;;;32.35;7.75;;;20.10;99.90;;;;;;5091797;28;20043;-70
2023/05/16 13:14:53;;;;;;;31.17;7.47;;;20.10;99.90;;;;;;5090527;28;20020;-70
2023/05/16 13:17:19;;;;;;;30.88;6.85;;;20.10;99.90;;;;;;5092384;28;20023;-70
2023/05/16 13:19:45;;;;;;;30.02;6.95;;;20.30;99.90;;;;;;5092344;28;20426;-69
2023/05/16 13:22:12;;;;;;;31.90;7.25;;;20.50;99.90;;;;;;5092012;28;20543;-69
2023/05/16 13:24:38;;;;;;;32.58;6.88;;;20.30;99.90;;;;;;5092131;28;20108;-69
2023/05/16 13:27:04;;;;;;;32.10;6.93;;;20.20;99.90;;;;;;5092444;28;20060;-70
2023/05/16 13:29:31;;;;;;;30.15;6.43;;;20.50;99.90;;;;;;5092193;28;20031;-71
2023/05/16 13:31:57;;;;;;;24.92;6.60;;;20.60;99.90;;;;;;5092048;28;20035;-70
2023/05/16 13:34:23;;;;;;;30.25;6.65;;;20.80;99.90;;;;;;5095712;28;20077;-69
2023/05/16 13:36:49;;;;;;;32.63;6.88;;;21.00;99.90;;;;;;5095837;28;20093;-70
2023/05/16 13:39:15;;;;;;;29.50;8.10;;;21.00;99.90;;;;;;5095772;28;20112;-71
2023/05/16 13:41:42;;;;;;;35.33;6.95;;;21.00;99.90;;;;;;5096203;28;20103;-70
2023/05/16 13:44:08;;;;;;;26.02;6.50;;;20.70;99.90;;;;;;5095674;28;20103;-69
2023/05/16 13:46:34;;;;;;;;;;;20.90;99.90;;;;;;5095523;28;20055;-69
2023/05/16 13:49:00;;;;;;;29.88;7.18;;;21.10;99.90;;;;;;5095130;28;19904;-69
2023/05/16 13:51:27;;;;;;;24.55;6.78;;;20.90;99.90;;;;;;5094915;28;20035;-69
2023/05/16 13:53:53;;;;;;;33.20;6.78;;;20.80;99.90;;;;;;5095174;28;20024;-71
2023/05/16 13:56:20;;;;;;;30.38;6.72;;;20.90;99.90;;;;;;5094807;28;20490;-70
2023/05/16 13:58:49;;;;;;;25.27;6.30;;;21.00;99.90;;;;;;5094731;28;20107;-71
2023/05/16 14:01:15;;;;;;;35.78;7.65;;;21.10;99.90;;;;;;5093357;28;20422;-71
2023/05/16 14:03:42;;;;;;;32.45;6.90;;;21.10;99.90;;;;;;5093427;28;20028;-70
2023/05/16 14:06:09;;;;;;;;;;;21.00;99.90;;;;;;5095207;28;20464;-71
2023/05/16 14:08:35;;;;;;;35.15;7.13;;;20.80;99.90;;;;;;5094927;28;20359;-71
2023/05/16 14:11:01;;;;;;;31.05;6.95;;;20.70;99.90;;;;;;5094727;28;20407;-68
2023/05/16 14:13:27;;;;;;;38.80;6.78;;;20.60;99.90;;;;;;5078427;28;20028;-68
2023/05/16 14:15:54;;;;;;;36.22;7.57;;;21.00;99.90;;;;;;5060118;28;20029;-66
2023/05/16 14:18:21;;;;;;;34.42;7.05;;;21.10;99.90;;;;;;5081374;28;20028;-69
2023/05/16 14:20:47;;;;;;;;;;;20.70;99.90;;;;;;5094645;28;20028;-68
2023/05/16 14:23:15;;;;;;;35.25;6.80;;;20.80;99.90;;;;;;5092927;28;19904;-66
2023/05/16 14:25:41;;;;;;;26.58;6.63;;;21.00;99.90;;;;;;5094728;28;20039;-70
2023/05/16 14:28:07;;;;;;;25.40;6.75;;;20.80;99.90;;;;;;5094493;28;20490;-69
2023/05/16 14:30:33;;;;;;;27.40;6.45;;;20.40;99.90;;;;;;5094647;28;20085;-68
2023/05/16 14:33:00;;;;;;;35.42;6.45;;;20.40;99.90;;;;;;5092669;28;20422;-70
2023/05/16 14:35:26;;;;;;;32.00;7.05;;;20.60;99.90;;;;;;5094105;28;20039;-70
2023/05/16 14:37:52;;;;;;;32.10;7.40;;;20.40;99.90;;;;;;5094144;28;20024;-70
2023/05/16 14:40:18;;;;;;;40.45;6.63;;;20.00;99.90;;;;;;5092746;28;20028;-71
2023/05/16 14:42:44;;;;;;;39.55;7.68;;;19.70;99.90;;;;;;5094144;28;20016;-69
2023/05/16 14:45:10;;;;;;;37.75;7.65;;;19.50;99.90;;;;;;5094030;28;20032;-69
2023/05/16 14:47:37;;;;;;;29.92;7.20;;;19.40;99.90;;;;;;5093435;28;20055;-70
2023/05/16 14:50:03;;;;;;;32.22;6.93;;;19.20;99.90;;;;;;5093903;28;20055;-70
2023/05/16 14:52:29;;;;;;;45.40;8.82;;;19.10;99.90;;;;;;5093272;28;20024;-70
2023/05/16 14:54:55;;;;;;;39.95;8.52;;;18.90;99.90;;;;;;5092741;28;20099;-71
2023/05/16 14:57:21;;;;;;;44.47;8.45;;;19.10;99.90;;;;;;5093298;28;20051;-70